sensor_id;sensor_type;location;lat;lon;timestamp;pressure;altitude;pressure_sealevel;temperature;humidity
71299;BME280;59083;47.974;21.722;2023-01-24T00:02:16;101888.94;;;2.13;100.00
71299;BME280;59083;47.974;21.722;2023-01-24T00:05:17;101898.53;;;2.14;100.00
71299;BME280;59083;47.974;21.722;2023-01-24T00:08:19;101888.94;;;2.13;100.00
71299;BME280;59083;47.974;21.722;2023-01-24T00:11:21;101888.03;;;2.14;100.00
71299;BME280;59083;47.974;21.722;2023-01-24T00:14:22;101889.81;;;2.13;100.00
71299;BME280;59083;47.974;21.722;2023-01-24T00:17:23;101893.06;;;2.17;100.00
71299;BME280;59083;47.974;21.722;2023-01-24T00:20:25;101883.69;;;2.13;100.00
71299;BME280;59083;47.974;21.722;2023-01-24T00:23:26;101894.97;;;2.15;100.00
71299;BME280;59083;47.974;21.722;2023-01-24T00:26:27;101900.12;;;2.16;100.00
71299;BME280;59083;47.974;21.722;2023-01-24T00:29:28;101900.41;;;2.12;100.00
71299;BME280;59083;47.974;21.722;2023-01-24T00:32:30;101901.53;;;2.07;100.00
71299;BME280;59083;47.974;21.722;2023-01-24T00:35:31;101902.47;;;2.06;100.00
71299;BME280;59083;47.974;21.722;2023-01-24T00:38:32;101899.13;;;2.04;100.00
71299;BME280;59083;47.974;21.722;2023-01-24T00:41:34;101901.84;;;2.03;100.00
71299;BME280;59083;47.974;21.722;2023-01-24T00:44:35;101904.56;;;2.01;100.00
71299;BME280;59083;47.974;21.722;2023-01-24T00:47:37;101911.59;;;2.01;100.00
71299;BME280;59083;47.974;21.722;2023-01-24T00:50:39;101903.91;;;1.98;100.00
71299;BME280;59083;47.974;21.722;2023-01-24T00:53:40;101899.50;;;1.98;100.00
71299;BME280;59083;47.974;21.722;2023-01-24T00:56:41;101909.81;;;2.01;100.00
71299;BME280;59083;47.974;21.722;2023-01-24T00:59:43;101903.69;;;2.01;100.00
71299;BME280;59083;47.974;21.722;2023-01-24T01:02:46;101908.13;;;2.00;100.00
71299;BME280;59083;47.974;21.722;2023-01-24T01:05:48;101900.22;;;2.00;100.00
71299;BME280;59083;47.974;21.722;2023-01-24T01:08:49;101909.03;;;1.99;100.00
71299;BME280;59083;47.974;21.722;2023-01-24T01:11:51;101904.75;;;1.98;100.00
71299;BME280;59083;47.974;21.722;2023-01-24T01:14:52;101902.28;;;1.95;100.00
71299;BME280;59083;47.974;21.722;2023-01-24T01:17:53;101901.56;;;1.93;100.00
71299;BME280;59083;47.974;21.722;2023-01-24T01:20:54;101908.31;;;1.97;100.00
71299;BME280;59083;47.974;21.722;2023-01-24T01:23:56;101913.38;;;2.00;100.00
71299;BME280;59083;47.974;21.722;2023-01-24T01:26:57;101911.50;;;2.02;100.00
71299;BME280;59083;47.974;21.722;2023-01-24T01:29:59;101913.19;;;2.03;100.00
71299;BME280;59083;47.974;21.722;2023-01-24T01:33:01;101910.00;;;1.98;100.00
71299;BME280;59083;47.974;21.722;2023-01-24T01:36:02;101915.81;;;2.03;100.00
71299;BME280;59083;47.974;21.722;2023-01-24T01:39:04;101913.19;;;2.03;100.00
71299;BME280;59083;47.974;21.722;2023-01-24T01:42:05;101911.31;;;2.05;100.00
71299;BME280;59083;47.974;21.722;2023-01-24T01:45:33;101913.00;;;2.06;100.00
71299;BME280;59083;47.974;21.722;2023-01-24T01:48:38;101910.28;;;2.08;100.00
71299;BME280;59083;47.974;21.722;2023-01-24T01:51:45;101911.13;;;2.08;100.00
71299;BME280;59083;47.974;21.722;2023-01-24T01:54:48;101904.09;;;2.09;100.00
71299;BME280;59083;47.974;21.722;2023-01-24T01:57:51;101902.69;;;2.03;100.00
71299;BME280;59083;47.974;21.722;2023-01-24T02:00:53;101900.78;;;2.05;100.00
71299;BME280;59083;47.974;21.722;2023-01-24T02:04:03;101907.72;;;2.06;100.00
71299;BME280;59083;47.974;21.722;2023-01-24T02:07:20;101908.59;;;2.07;100.00
71299;BME280;59083;47.974;21.722;2023-01-24T02:10:24;101907.94;;;2.03;100.00
71299;BME280;59083;47.974;21.722;2023-01-24T02:13:25;101909.81;;;2.01;100.00
71299;BME280;59083;47.974;21.722;2023-01-24T02:16:27;101910.84;;;1.99;100.00
71299;BME280;59083;47.974;21.722;2023-01-24T02:26:12;101914.87;;;2.04;100.00
71299;BME280;59083;47.974;21.722;2023-01-24T02:29:15;101913.19;;;2.03;100.00
71299;BME280;59083;47.974;21.722;2023-01-24T02:32:17;101915.44;;;2.10;100.00
71299;BME280;59083;47.974;21.722;2023-01-24T02:35:31;101908.66;;;2.05;100.00
71299;BME280;59083;47.974;21.722;2023-01-24T02:38:32;101913.12;;;2.05;100.00
71299;BME280;59083;47.974;21.722;2023-01-24T02:41:43;101907.72;;;2.06;100.00
71299;BME280;59083;47.974;21.722;2023-01-24T02:44:51;101913.00;;;2.06;100.00
71299;BME280;59083;47.974;21.722;2023-01-24T02:47:55;101906.16;;;2.04;100.00
71299;BME280;59083;47.974;21.722;2023-01-24T02:50:56;101909.44;;;2.07;100.00
71299;BME280;59083;47.974;21.722;2023-01-24T02:54:16;101907.72;;;2.06;100.00
71299;BME280;59083;47.974;21.722;2023-01-24T02:57:17;101906.03;;;2.05;100.00
71299;BME280;59083;47.974;21.722;2023-01-24T03:00:40;101911.13;;;2.08;100.00
71299;BME280;59083;47.974;21.722;2023-01-24T03:03:43;101905.66;;;2.12;100.00
71299;BME280;59083;47.974;21.722;2023-01-24T03:06:45;101905.03;;;2.08;100.00
71299;BME280;59083;47.974;21.722;2023-01-24T03:09:46;101913.84;;;2.07;100.00
71299;BME280;59083;47.974;21.722;2023-01-24T03:12:51;101905.09;;;2.06;100.00
71299;BME280;59083;47.974;21.722;2023-01-24T03:16:11;101904.16;;;2.07;100.00
71299;BME280;59083;47.974;21.722;2023-01-24T03:19:32;101905.88;;;2.08;100.00
71299;BME280;59083;47.974;21.722;2023-01-24T03:22:52;101905.66;;;2.12;100.00
71299;BME280;59083;47.974;21.722;2023-01-24T03:26:12;101912.69;;;2.11;100.00
71299;BME280;59083;47.974;21.722;2023-01-24T03:29:31;101910.53;;;2.18;100.00
71299;BME280;59083;47.974;21.722;2023-01-24T03:32:58;101910.75;;;2.15;100.00
71299;BME280;59083;47.974;21.722;2023-01-24T03:36:18;101906.12;;;2.18;100.00
71299;BME280;59083;47.974;21.722;2023-01-24T03:39:32;101914.78;;;2.20;100.00
71299;BME280;59083;47.974;21.722;2023-01-24T03:42:51;101914.87;;;2.19;100.00
71299;BME280;59083;47.974;21.722;2023-01-24T03:45:53;101910.25;;;2.22;100.00
71299;BME280;59083;47.974;21.722;2023-01-24T03:48:56;101897.94;;;2.23;100.00
71299;BME280;59083;47.974;21.722;2023-01-24T03:51:57;101905.94;;;2.21;100.00
71299;BME280;59083;47.974;21.722;2023-01-24T03:55:17;101917.19;;;2.23;100.00
71299;BME280;59083;47.974;21.722;2023-01-24T03:58:19;101912.06;;;2.22;100.00
71299;BME280;59083;47.974;21.722;2023-01-24T04:01:21;101911.00;;;2.24;100.00
71299;BME280;59083;47.974;21.722;2023-01-24T04:04:23;101914.41;;;2.26;100.00
71299;BME280;59083;47.974;21.722;2023-01-24T04:07:44;101915.25;;;2.27;100.00
71299;BME280;59083;47.974;21.722;2023-01-24T04:10:46;101912.06;;;2.22;100.00
71299;BME280;59083;47.974;21.722;2023-01-24T04:13:47;101913.72;;;2.23;100.00
71299;BME280;59083;47.974;21.722;2023-01-24T04:16:49;101910.16;;;2.24;100.00
71299;BME280;59083;47.974;21.722;2023-01-24T04:19:50;101909.97;;;2.27;100.00
71299;BME280;59083;47.974;21.722;2023-01-24T04:22:52;101897.78;;;2.26;100.00
71299;BME280;59083;47.974;21.722;2023-01-24T04:25:53;101898.63;;;2.26;100.00
71299;BME280;59083;47.974;21.722;2023-01-24T04:28:58;101911.47;;;2.31;100.00
71299;BME280;59083;47.974;21.722;2023-01-24T04:31:59;101905.19;;;2.33;100.00
71299;BME280;59083;47.974;21.722;2023-01-24T04:35:01;101897.38;;;2.32;100.00
71299;BME280;59083;47.974;21.722;2023-01-24T04:38:07;101894.53;;;2.35;100.00
71299;BME280;59083;47.974;21.722;2023-01-24T04:41:09;101901.31;;;2.39;100.00
71299;BME280;59083;47.974;21.722;2023-01-24T04:44:14;101905.75;;;2.38;99.88
71299;BME280;59083;47.974;21.722;2023-01-24T04:47:16;101898.69;;;2.39;99.87
71299;BME280;59083;47.974;21.722;2023-01-24T04:50:17;101903.94;;;2.39;99.98
71299;BME280;59083;47.974;21.722;2023-01-24T04:53:20;101904.13;;;2.36;100.00
71299;BME280;59083;47.974;21.722;2023-01-24T04:56:22;101907.53;;;2.38;99.99
71299;BME280;59083;47.974;21.722;2023-01-24T04:59:24;101914.47;;;2.39;100.00
71299;BME280;59083;47.974;21.722;2023-01-24T05:02:26;101920.75;;;2.36;99.99
71299;BME280;59083;47.974;21.722;2023-01-24T05:05:27;101909.38;;;2.36;100.00
71299;BME280;59083;47.974;21.722;2023-01-24T05:08:28;101915.41;;;2.38;99.92
71299;BME280;59083;47.974;21.722;2023-01-24T05:11:30;101913.72;;;2.37;99.84
71299;BME280;59083;47.974;21.722;2023-01-24T05:14:32;101918.22;;;2.35;99.99
71299;BME280;59083;47.974;21.722;2023-01-24T05:17:33;101919.91;;;2.36;100.00
71299;BME280;59083;47.974;21.722;2023-01-24T05:20:35;101920.75;;;2.36;99.94
71299;BME280;59083;47.974;21.722;2023-01-24T05:23:37;101903.03;;;2.26;99.95
71299;BME280;59083;47.974;21.722;2023-01-24T05:26:39;101923.47;;;2.35;100.00
71299;BME280;59083;47.974;21.722;2023-01-24T05:29:42;101920.12;;;2.33;100.00
71299;BME280;59083;47.974;21.722;2023-01-24T05:32:43;101926.22;;;2.33;100.00
71299;BME280;59083;47.974;21.722;2023-01-24T05:35:44;101927.03;;;2.34;100.00
71299;BME280;59083;47.974;21.722;2023-01-24T05:38:46;101926.03;;;2.36;100.00
71299;BME280;59083;47.974;21.722;2023-01-24T05:41:48;101926.09;;;2.35;100.00
71299;BME280;59083;47.974;21.722;2023-01-24T05:44:50;101925.16;;;2.36;100.00
71299;BME280;59083;47.974;21.722;2023-01-24T05:47:52;101929.50;;;2.37;100.00
71299;BME280;59083;47.974;21.722;2023-01-24T05:51:01;101932.13;;;2.37;100.00
71299;BME280;59083;47.974;21.722;2023-01-24T05:54:03;101926.66;;;2.40;99.97
71299;BME280;59083;47.974;21.722;2023-01-24T05:57:06;101923.31;;;2.38;100.00
71299;BME280;59083;47.974;21.722;2023-01-24T06:00:09;101937.00;;;2.43;99.85
71299;BME280;59083;47.974;21.722;2023-01-24T06:03:15;101931.91;;;2.40;100.00
71299;BME280;59083;47.974;21.722;2023-01-24T06:06:21;101929.03;;;2.44;99.77
71299;BME280;59083;47.974;21.722;2023-01-24T06:09:23;101941.41;;;2.42;100.00
71299;BME280;59083;47.974;21.722;2023-01-24T06:12:24;101943.75;;;2.47;99.76
71299;BME280;59083;47.974;21.722;2023-01-24T06:15:26;101933.22;;;2.47;99.88
71299;BME280;59083;47.974;21.722;2023-01-24T06:18:27;101943.75;;;2.47;99.92
71299;BME280;59083;47.974;21.722;2023-01-24T06:21:42;101942.06;;;2.46;100.00
71299;BME280;59083;47.974;21.722;2023-01-24T06:24:45;101948.06;;;2.48;99.79
71299;BME280;59083;47.974;21.722;2023-01-24T06:27:48;101943.56;;;2.50;100.00
71299;BME280;59083;47.974;21.722;2023-01-24T06:30:59;101949.72;;;2.63;99.56
71299;BME280;59083;47.974;21.722;2023-01-24T06:34:23;101953.88;;;2.67;99.34
71299;BME280;59083;47.974;21.722;2023-01-24T06:37:47;101943.34;;;2.67;99.01
71299;BME280;59083;47.974;21.722;2023-01-24T06:40:55;101947.84;;;2.65;99.19
71299;BME280;59083;47.974;21.722;2023-01-24T06:43:57;101953.28;;;2.62;99.23
71299;BME280;59083;47.974;21.722;2023-01-24T06:46:58;101949.53;;;2.66;99.29
71299;BME280;59083;47.974;21.722;2023-01-24T06:49:59;101953.88;;;2.67;99.57
71299;BME280;59083;47.974;21.722;2023-01-24T06:53:00;101951.66;;;2.74;98.98
71299;BME280;59083;47.974;21.722;2023-01-24T06:56:01;101955.44;;;2.70;99.15
71299;BME280;59083;47.974;21.722;2023-01-24T06:59:03;101964.75;;;2.75;99.09
71299;BME280;59083;47.974;21.722;2023-01-24T07:02:05;101963.50;;;2.81;98.93
71299;BME280;59083;47.974;21.722;2023-01-24T07:05:06;101963.31;;;2.84;98.64
71299;BME280;59083;47.974;21.722;2023-01-24T07:08:07;101967.34;;;2.89;98.62
71299;BME280;59083;47.974;21.722;2023-01-24T07:11:08;101975.13;;;2.91;98.25
71299;BME280;59083;47.974;21.722;2023-01-24T07:14:10;101968.63;;;2.97;98.41
71299;BME280;59083;47.974;21.722;2023-01-24T07:17:11;101981.22;;;2.91;98.45
71299;BME280;59083;47.974;21.722;2023-01-24T07:20:13;101984.41;;;2.97;98.47
71299;BME280;59083;47.974;21.722;2023-01-24T07:23:21;101979.16;;;2.97;98.52
71299;BME280;59083;47.974;21.722;2023-01-24T07:26:24;101989.28;;;3.03;97.99
71299;BME280;59083;47.974;21.722;2023-01-24T07:29:25;101991.44;;;3.10;98.12
71299;BME280;59083;47.974;21.722;2023-01-24T07:32:27;101987.66;;;3.14;98.38
71299;BME280;59083;47.974;21.722;2023-01-24T07:35:28;101988.59;;;3.13;97.83
71299;BME280;59083;47.974;21.722;2023-01-24T07:38:29;101985.56;;;3.19;97.67
71299;BME280;59083;47.974;21.722;2023-01-24T07:41:30;101985.91;;;3.27;97.44
71299;BME280;59083;47.974;21.722;2023-01-24T07:44:34;101987.38;;;3.31;97.12
71299;BME280;59083;47.974;21.722;2023-01-24T07:47:35;101986.47;;;3.45;97.02
71299;BME280;59083;47.974;21.722;2023-01-24T07:50:36;101982.91;;;3.59;96.22
71299;BME280;59083;47.974;21.722;2023-01-24T07:53:38;102000.53;;;3.71;95.84
71299;BME280;59083;47.974;21.722;2023-01-24T07:56:39;101980.22;;;3.86;95.23
71299;BME280;59083;47.974;21.722;2023-01-24T07:59:40;101990.97;;;4.08;94.64
71299;BME280;59083;47.974;21.722;2023-01-24T08:02:42;101987.16;;;4.25;93.92
71299;BME280;59083;47.974;21.722;2023-01-24T08:05:44;101983.16;;;4.32;93.29
71299;BME280;59083;47.974;21.722;2023-01-24T08:08:45;101969.63;;;4.36;92.86
71299;BME280;59083;47.974;21.722;2023-01-24T08:11:47;101987.75;;;4.53;92.05
71299;BME280;59083;47.974;21.722;2023-01-24T08:14:48;101981.81;;;4.63;91.80
71299;BME280;59083;47.974;21.722;2023-01-24T08:17:49;101987.00;;;4.64;90.62
71299;BME280;59083;47.974;21.722;2023-01-24T08:20:54;101987.28;;;4.72;91.56
71299;BME280;59083;47.974;21.722;2023-01-24T08:23:56;101987.41;;;4.71;91.19
71299;BME280;59083;47.974;21.722;2023-01-24T08:26:58;101989.81;;;4.74;90.68
71299;BME280;59083;47.974;21.722;2023-01-24T08:30:00;101992.34;;;4.75;90.71
71299;BME280;59083;47.974;21.722;2023-01-24T08:33:03;101987.06;;;4.75;90.16
71299;BME280;59083;47.974;21.722;2023-01-24T08:36:05;101987.13;;;4.86;90.35
71299;BME280;59083;47.974;21.722;2023-01-24T08:39:06;101991.56;;;4.86;90.42
71299;BME280;59083;47.974;21.722;2023-01-24T08:42:09;101987.19;;;4.97;90.29
71299;BME280;59083;47.974;21.722;2023-01-24T08:45:10;101990.75;;;5.09;89.78
71299;BME280;59083;47.974;21.722;2023-01-24T08:48:12;101985.44;;;5.09;89.59
71299;BME280;59083;47.974;21.722;2023-01-24T08:51:13;101987.66;;;5.15;89.08
71299;BME280;59083;47.974;21.722;2023-01-24T08:54:14;101999.47;;;5.22;89.06
71299;BME280;59083;47.974;21.722;2023-01-24T08:57:15;101996.13;;;5.31;88.96
71299;BME280;59083;47.974;21.722;2023-01-24T09:00:17;101992.47;;;5.45;88.69
71299;BME280;59083;47.974;21.722;2023-01-24T09:03:18;101991.16;;;5.51;88.03
71299;BME280;59083;47.974;21.722;2023-01-24T09:06:20;102000.19;;;5.59;88.12
71299;BME280;59083;47.974;21.722;2023-01-24T09:09:21;101998.66;;;5.68;87.43
71299;BME280;59083;47.974;21.722;2023-01-24T09:12:25;101994.81;;;5.72;86.85
71299;BME280;59083;47.974;21.722;2023-01-24T09:15:26;101994.34;;;5.78;86.50
71299;BME280;59083;47.974;21.722;2023-01-24T09:18:27;101995.38;;;5.88;86.86
71299;BME280;59083;47.974;21.722;2023-01-24T09:21:28;101991.19;;;5.97;85.67
71299;BME280;59083;47.974;21.722;2023-01-24T09:24:30;101999.13;;;5.97;85.49
71299;BME280;59083;47.974;21.722;2023-01-24T09:27:31;102005.03;;;6.00;86.03
71299;BME280;59083;47.974;21.722;2023-01-24T09:30:34;101997.69;;;6.04;86.07
71299;BME280;59083;47.974;21.722;2023-01-24T09:33:35;101994.44;;;6.11;85.37
71299;BME280;59083;47.974;21.722;2023-01-24T09:36:36;101998.06;;;6.21;85.81
71299;BME280;59083;47.974;21.722;2023-01-24T09:39:37;101996.41;;;6.20;85.67
71299;BME280;59083;47.974;21.722;2023-01-24T09:42:45;101975.22;;;6.09;85.83
71299;BME280;59083;47.974;21.722;2023-01-24T09:49:09;101993.75;;;6.32;85.14
71299;BME280;59083;47.974;21.722;2023-01-24T09:52:26;101993.88;;;6.41;85.14
71299;BME280;59083;47.974;21.722;2023-01-24T09:55:39;101986.50;;;6.45;85.42
71299;BME280;59083;47.974;21.722;2023-01-24T09:58:42;101981.94;;;6.47;85.67
71299;BME280;59083;47.974;21.722;2023-01-24T10:01:51;101988.94;;;6.48;85.51
71299;BME280;59083;47.974;21.722;2023-01-24T10:04:53;101982.66;;;6.60;85.59
71299;BME280;59083;47.974;21.722;2023-01-24T10:21:14;101974.31;;;6.87;84.57
71299;BME280;59083;47.974;21.722;2023-01-24T10:24:26;101972.19;;;7.01;85.00
71299;BME280;59083;47.974;21.722;2023-01-24T10:27:38;101972.13;;;7.24;84.63
71299;BME280;59083;47.974;21.722;2023-01-24T10:30:51;101962.91;;;7.39;83.87
71299;BME280;59083;47.974;21.722;2023-01-24T10:34:17;101963.09;;;7.47;83.58
71299;BME280;59083;47.974;21.722;2023-01-24T10:37:25;101961.31;;;7.68;82.97
71299;BME280;59083;47.974;21.722;2023-01-24T10:40:27;101945.41;;;7.68;81.78
71299;BME280;59083;47.974;21.722;2023-01-24T10:43:31;101955.66;;;7.82;82.08
71299;BME280;59083;47.974;21.722;2023-01-24T10:50:14;101947.63;;;7.94;80.64
71299;BME280;59083;47.974;21.722;2023-01-24T10:53:25;101936.66;;;8.08;80.60
71299;BME280;59083;47.974;21.722;2023-01-24T10:56:27;101937.78;;;8.15;80.31
71299;BME280;59083;47.974;21.722;2023-01-24T10:59:28;101927.44;;;8.12;80.06
71299;BME280;59083;47.974;21.722;2023-01-24T11:02:30;101928.59;;;8.19;79.76
71299;BME280;59083;47.974;21.722;2023-01-24T11:05:53;101930.00;;;8.23;79.57
71299;BME280;59083;47.974;21.722;2023-01-24T11:09:08;101925.50;;;8.14;78.71
71299;BME280;59083;47.974;21.722;2023-01-24T11:12:13;101921.03;;;8.14;78.82
71299;BME280;59083;47.974;21.722;2023-01-24T11:15:33;101918.66;;;8.21;79.38
71299;BME280;59083;47.974;21.722;2023-01-24T11:18:35;101911.13;;;8.26;79.57
71299;BME280;59083;47.974;21.722;2023-01-24T11:21:53;101911.34;;;8.34;79.58
71299;BME280;59083;47.974;21.722;2023-01-24T11:24:58;101905.78;;;8.37;79.04
71299;BME280;59083;47.974;21.722;2023-01-24T11:28:00;101894.59;;;8.43;78.85
71299;BME280;59083;47.974;21.722;2023-01-24T11:31:06;101894.87;;;8.40;79.09
71299;BME280;59083;47.974;21.722;2023-01-24T11:34:28;101886.34;;;8.37;79.21
71299;BME280;59083;47.974;21.722;2023-01-24T11:41:15;101882.31;;;8.42;78.62
71299;BME280;59083;47.974;21.722;2023-01-24T11:51:19;101879.97;;;8.28;79.29
71299;BME280;59083;47.974;21.722;2023-01-24T12:00:55;101884.44;;;8.18;79.56
71299;BME280;59083;47.974;21.722;2023-01-24T12:23:39;101883.97;;;7.73;82.06
71299;BME280;59083;47.974;21.722;2023-01-24T12:26:45;101878.66;;;7.73;81.87
71299;BME280;59083;47.974;21.722;2023-01-24T12:30:15;101876.66;;;7.65;82.23
71299;BME280;59083;47.974;21.722;2023-01-24T12:33:38;101884.81;;;7.53;83.06
71299;BME280;59083;47.974;21.722;2023-01-24T12:36:48;101887.19;;;7.46;83.82
71299;BME280;59083;47.974;21.722;2023-01-24T12:40:14;101883.06;;;7.42;84.07
71299;BME280;59083;47.974;21.722;2023-01-24T12:50:20;101888.38;;;7.42;84.04
71299;BME280;59083;47.974;21.722;2023-01-24T12:57:11;101885.72;;;7.42;84.24
71299;BME280;59083;47.974;21.722;2023-01-24T13:00:21;101878.38;;;7.45;84.05
71299;BME280;59083;47.974;21.722;2023-01-24T13:03:28;101875.75;;;7.55;83.76
71299;BME280;59083;47.974;21.722;2023-01-24T13:12:50;101869.31;;;7.78;83.01
71299;BME280;59083;47.974;21.722;2023-01-24T13:22:54;101873.41;;;7.92;82.51
71299;BME280;59083;47.974;21.722;2023-01-24T13:26:20;101867.97;;;7.94;82.53
71299;BME280;59083;47.974;21.722;2023-01-24T13:32:58;101875.16;;;8.03;82.03
71299;BME280;59083;47.974;21.722;2023-01-24T13:36:04;101870.37;;;7.97;81.75
71299;BME280;59083;47.974;21.722;2023-01-24T13:39:28;101873.03;;;7.97;81.78
71299;BME280;59083;47.974;21.722;2023-01-24T13:45:40;101868.69;;;7.96;80.84
71299;BME280;59083;47.974;21.722;2023-01-24T13:48:43;101868.41;;;7.89;81.41
71299;BME280;59083;47.974;21.722;2023-01-24T13:51:46;101872.84;;;7.88;81.53
71299;BME280;59083;47.974;21.722;2023-01-24T13:54:48;101862.78;;;7.82;81.39
71299;BME280;59083;47.974;21.722;2023-01-24T14:01:15;101869.84;;;7.72;82.34
71299;BME280;59083;47.974;21.722;2023-01-24T14:04:18;101865.28;;;7.74;82.32
71299;BME280;59083;47.974;21.722;2023-01-24T14:07:30;101872.75;;;7.69;82.58
71299;BME280;59083;47.974;21.722;2023-01-24T14:14:27;101878.34;;;7.66;82.42
71299;BME280;59083;47.974;21.722;2023-01-24T14:17:49;101874.81;;;7.56;82.92
71299;BME280;59083;47.974;21.722;2023-01-24T14:20:52;101885.22;;;7.48;83.19
71299;BME280;59083;47.974;21.722;2023-01-24T14:24:12;101888.81;;;7.47;82.85
71299;BME280;59083;47.974;21.722;2023-01-24T14:33:39;101894.03;;;7.28;82.65
71299;BME280;59083;47.974;21.722;2023-01-24T14:36:45;101890.78;;;7.24;82.59
71299;BME280;59083;47.974;21.722;2023-01-24T14:39:48;101890.19;;;7.21;82.93
71299;BME280;59083;47.974;21.722;2023-01-24T14:42:51;101889.28;;;7.11;83.29
71299;BME280;59083;47.974;21.722;2023-01-24T14:45:57;101888.84;;;7.05;83.54
71299;BME280;59083;47.974;21.722;2023-01-24T14:48:59;101902.00;;;6.96;83.92
71299;BME280;59083;47.974;21.722;2023-01-24T14:52:17;101897.34;;;6.88;84.27
71299;BME280;59083;47.974;21.722;2023-01-24T14:55:37;101902.69;;;6.77;85.02
71299;BME280;59083;47.974;21.722;2023-01-24T14:58:43;101902.44;;;6.69;85.13
71299;BME280;59083;47.974;21.722;2023-01-24T15:01:45;101904.41;;;6.56;85.85
71299;BME280;59083;47.974;21.722;2023-01-24T15:04:49;101904.91;;;6.39;86.41
71299;BME280;59083;47.974;21.722;2023-01-24T15:07:51;101896.84;;;6.40;86.42
71299;BME280;59083;47.974;21.722;2023-01-24T15:11:01;101899.53;;;6.29;87.59
71299;BME280;59083;47.974;21.722;2023-01-24T15:14:06;101910.22;;;6.16;87.95
71299;BME280;59083;47.974;21.722;2023-01-24T15:17:21;101915.16;;;6.10;88.16
71299;BME280;59083;47.974;21.722;2023-01-24T15:20:23;101916.62;;;5.92;90.21
71299;BME280;59083;47.974;21.722;2023-01-24T15:23:28;101907.44;;;5.73;90.16
71299;BME280;59083;47.974;21.722;2023-01-24T15:29:44;101933.97;;;5.61;91.23
71299;BME280;59083;47.974;21.722;2023-01-24T15:32:59;101933.97;;;5.61;91.78
71299;BME280;59083;47.974;21.722;2023-01-24T15:36:01;101939.97;;;5.52;92.40
71299;BME280;59083;47.974;21.722;2023-01-24T15:39:02;101939.00;;;5.53;91.42
71299;BME280;59083;47.974;21.722;2023-01-24T15:42:14;101940.19;;;5.49;90.63
71299;BME280;59083;47.974;21.722;2023-01-24T15:45:37;101942.13;;;5.47;90.11
71299;BME280;59083;47.974;21.722;2023-01-24T15:48:38;101944.25;;;5.41;89.38
71299;BME280;59083;47.974;21.722;2023-01-24T15:51:40;101950.00;;;5.35;89.29
71299;BME280;59083;47.974;21.722;2023-01-24T15:54:49;101945.66;;;5.23;89.64
71299;BME280;59083;47.974;21.722;2023-01-24T15:57:53;101955.00;;;5.16;89.98
71299;BME280;59083;47.974;21.722;2023-01-24T16:00:59;101958.28;;;5.07;90.24
71299;BME280;59083;47.974;21.722;2023-01-24T16:04:11;101952.50;;;5.02;90.37
71299;BME280;59083;47.974;21.722;2023-01-24T16:07:15;101958.25;;;4.96;90.29
71299;BME280;59083;47.974;21.722;2023-01-24T16:10:17;101961.00;;;4.94;90.23
71299;BME280;59083;47.974;21.722;2023-01-24T16:16:51;101965.72;;;4.78;90.78
71299;BME280;59083;47.974;21.722;2023-01-24T16:19:53;101974.19;;;4.71;90.86
71299;BME280;59083;47.974;21.722;2023-01-24T16:22:55;101980.13;;;4.62;91.49
71299;BME280;59083;47.974;21.722;2023-01-24T16:25:56;101977.19;;;4.53;91.63
71299;BME280;59083;47.974;21.722;2023-01-24T16:28:58;101972.87;;;4.52;91.75
71299;BME280;59083;47.974;21.722;2023-01-24T16:31:59;101971.59;;;4.45;91.72
71299;BME280;59083;47.974;21.722;2023-01-24T16:35:00;101966.66;;;4.28;92.15
71299;BME280;59083;47.974;21.722;2023-01-24T16:38:01;101979.56;;;4.33;92.23
71299;BME280;59083;47.974;21.722;2023-01-24T16:41:05;101981.56;;;4.29;92.19
71299;BME280;59083;47.974;21.722;2023-01-24T16:44:06;101984.19;;;4.16;92.75
71299;BME280;59083;47.974;21.722;2023-01-24T16:47:07;101992.25;;;4.15;92.42
71299;BME280;59083;47.974;21.722;2023-01-24T16:50:10;101984.53;;;4.12;92.55
71299;BME280;59083;47.974;21.722;2023-01-24T16:53:13;101991.16;;;4.05;92.46
71299;BME280;59083;47.974;21.722;2023-01-24T16:56:15;101998.12;;;3.93;92.63
71299;BME280;59083;47.974;21.722;2023-01-24T16:59:16;101996.97;;;3.85;92.95
71299;BME280;59083;47.974;21.722;2023-01-24T17:02:17;101994.00;;;3.77;93.35
71299;BME280;59083;47.974;21.722;2023-01-24T17:05:18;101992.22;;;3.64;93.94
71299;BME280;59083;47.974;21.722;2023-01-24T17:08:20;101996.94;;;3.59;94.24
71299;BME280;59083;47.974;21.722;2023-01-24T17:11:21;102006.75;;;3.57;93.84
71299;BME280;59083;47.974;21.722;2023-01-24T17:14:23;101998.09;;;3.55;93.91
71299;BME280;59083;47.974;21.722;2023-01-24T17:17:24;102004.00;;;3.46;94.38
71299;BME280;59083;47.974;21.722;2023-01-24T17:20:26;102007.97;;;3.39;95.04
71299;BME280;59083;47.974;21.722;2023-01-24T17:23:27;102011.75;;;3.35;94.75
71299;BME280;59083;47.974;21.722;2023-01-24T17:26:28;102012.03;;;3.30;94.83
71299;BME280;59083;47.974;21.722;2023-01-24T17:29:30;102014.13;;;3.25;95.06
71299;BME280;59083;47.974;21.722;2023-01-24T17:32:32;102014.25;;;3.24;95.28
71299;BME280;59083;47.974;21.722;2023-01-24T17:35:36;102013.72;;;3.19;95.48
71299;BME280;59083;47.974;21.722;2023-01-24T17:38:38;102020.09;;;3.15;95.39
71299;BME280;59083;47.974;21.722;2023-01-24T17:41:40;102016.91;;;3.10;95.70
71299;BME280;59083;47.974;21.722;2023-01-24T17:44:41;102021.56;;;3.06;95.92
71299;BME280;59083;47.974;21.722;2023-01-24T17:47:42;102020.50;;;3.09;95.67
71299;BME280;59083;47.974;21.722;2023-01-24T17:50:43;102019.75;;;3.07;95.51
71299;BME280;59083;47.974;21.722;2023-01-24T17:53:45;102012.91;;;3.04;95.48
71299;BME280;59083;47.974;21.722;2023-01-24T17:56:46;102019.84;;;3.05;95.26